createdAt,value
2022-08-09T00:00:00.042Z,100427.47
2022-08-09T00:02:27.172Z,100425.31
2022-08-09T00:05:02.848Z,100421.47
2022-08-09T00:07:44.842Z,100425.25
2022-08-09T00:10:21.345Z,100416.25
2022-08-09T00:12:52.552Z,100413.03
2022-08-09T00:15:26.448Z,100417.41
2022-08-09T00:18:05.604Z,100417.81
2022-08-09T00:20:41.476Z,100411.19
2022-08-09T00:23:55.325Z,100405.69
2022-08-09T00:25:56.474Z,100402.13
2022-08-09T00:28:23.321Z,100402.75
2022-08-09T00:30:54.043Z,100398.75
2022-08-09T00:33:20.885Z,100399.81
2022-08-09T00:36:07.798Z,100403.13
2022-08-09T00:38:35.353Z,100399.75
2022-08-09T00:41:05.302Z,100401.88
2022-08-09T00:44:27.383Z,100408.16
2022-08-09T00:46:55.378Z,100402.16
2022-08-09T00:49:10.962Z,100402.09
2022-08-09T00:51:42.698Z,100397.19
2022-08-09T00:54:23.489Z,100400.06
2022-08-09T00:57:02.608Z,100392.19
2022-08-09T00:59:41.667Z,100399.16
2022-08-09T01:02:18.737Z,100397.00
2022-08-09T01:04:53.020Z,100397.78
2022-08-09T01:07:38.098Z,100398.19
2022-08-09T01:10:15.313Z,100402.38
2022-08-09T01:13:04.598Z,100404.84
2022-08-09T01:15:41.036Z,100402.03
2022-08-09T01:18:30.542Z,100398.81
2022-08-09T01:21:16.587Z,100403.44
2022-08-09T01:24:15.920Z,100400.38
2022-08-09T01:26:42.726Z,100398.06
2022-08-09T01:29:15.514Z,100394.91
2022-08-09T01:32:31.603Z,100404.38
2022-08-09T01:34:33.038Z,100403.09
2022-08-09T01:37:01.854Z,100403.75
2022-08-09T01:39:30.568Z,100393.66
2022-08-09T01:42:10.828Z,100409.38
2022-08-09T01:44:39.181Z,100406.44
2022-08-09T01:47:06.804Z,100410.44
2022-08-09T01:49:39.875Z,100401.25
2022-08-09T01:52:14.515Z,100411.06
2022-08-09T01:54:46.465Z,100411.84
2022-08-09T01:57:17.741Z,100412.19
2022-08-09T01:59:51.797Z,100409.56
2022-08-09T02:02:20.852Z,100410.28
2022-08-09T02:04:50.009Z,100417.69
2022-08-09T02:08:34.790Z,100419.75
2022-08-09T02:10:07.263Z,100416.56
2022-08-09T02:12:35.410Z,100419.13
2022-08-09T02:15:06.392Z,100423.56
2022-08-09T02:18:01.383Z,100429.63
2022-08-09T02:20:26.477Z,100426.59
2022-08-09T02:23:02.025Z,100429.09
2022-08-09T02:25:30.548Z,100427.31
2022-08-09T02:28:04.117Z,100432.72
2022-08-09T02:30:34.627Z,100441.06
2022-08-09T02:33:02.310Z,100432.50
2022-08-09T02:36:01.173Z,100434.34
2022-08-09T02:38:21.784Z,100437.44
2022-08-09T02:40:58.160Z,100438.50
2022-08-09T02:43:28.732Z,100436.69
2022-08-09T02:45:57.324Z,100435.56
2022-08-09T02:48:31.052Z,100434.69
2022-08-09T02:51:02.476Z,100435.25
2022-08-09T02:53:34.277Z,100433.56
2022-08-09T02:56:01.946Z,100436.66
2022-08-09T02:58:35.413Z,100433.75
2022-08-09T03:01:03.962Z,100434.97
2022-08-09T03:04:12.725Z,100430.34
2022-08-09T03:06:21.443Z,100438.69
2022-08-09T03:08:49.438Z,100438.97
2022-08-09T03:12:04.667Z,100433.28
2022-08-09T03:14:05.217Z,100440.84
2022-08-09T03:16:33.715Z,100439.31
2022-08-09T03:19:04.772Z,100440.66
2022-08-09T03:21:41.738Z,100438.22
2022-08-09T03:24:09.990Z,100449.84
2022-08-09T03:26:45.118Z,100435.25
2022-08-09T03:29:22.941Z,100435.66
2022-08-09T03:32:00.232Z,100442.28
2022-08-09T03:34:27.815Z,100440.97
2022-08-09T03:36:59.515Z,100447.66
2022-08-09T03:39:37.487Z,100448.06
2022-08-09T03:42:07.137Z,100451.38
2022-08-09T03:44:34.071Z,100454.00
2022-08-09T03:47:00.928Z,100452.22
2022-08-09T03:49:32.790Z,100455.78
2022-08-09T03:52:03.685Z,100454.69
2022-08-09T03:54:40.468Z,100458.25
2022-08-09T03:57:18.175Z,100465.84
2022-08-09T03:59:54.248Z,100463.75
2022-08-09T04:02:26.812Z,100466.84
2022-08-09T04:04:58.988Z,100462.59
2022-08-09T04:07:33.826Z,100470.34
2022-08-09T04:10:14.294Z,100464.88
2022-08-09T04:12:54.512Z,100467.31
2022-08-09T04:15:39.083Z,100466.81
2022-08-09T04:18:09.741Z,100473.88
2022-08-09T04:20:46.233Z,100475.56
2022-08-09T04:23:17.258Z,100474.50
2022-08-09T04:25:51.698Z,100481.22
2022-08-09T04:28:34.026Z,100482.09
2022-08-09T04:31:09.251Z,100477.06
2022-08-09T04:33:52.132Z,100481.63
2022-08-09T04:36:24.430Z,100475.41
2022-08-09T04:38:51.763Z,100482.69
2022-08-09T04:41:19.257Z,100481.66
2022-08-09T04:44:04.936Z,100486.97
2022-08-09T04:46:38.013Z,100487.81
2022-08-09T04:49:30.144Z,100489.31
2022-08-09T04:52:07.471Z,100489.72
2022-08-09T04:54:36.461Z,100494.41
2022-08-09T04:57:03.789Z,100500.31
2022-08-09T04:59:31.398Z,100504.25
2022-08-09T05:01:58.760Z,100500.66
2022-08-09T05:04:30.838Z,100510.13
2022-08-09T05:06:58.621Z,100505.34
2022-08-09T05:09:42.330Z,100510.00
2022-08-09T05:12:12.701Z,100509.50
2022-08-09T05:14:41.189Z,100519.59
2022-08-09T05:17:15.216Z,100519.06
2022-08-09T05:19:56.940Z,100515.66
2022-08-09T05:22:35.761Z,100522.44
2022-08-09T05:25:12.074Z,100521.50
2022-08-09T05:27:47.774Z,100537.47
2022-08-09T05:30:15.312Z,100529.47
2022-08-09T05:32:44.952Z,100538.03
2022-08-09T05:35:18.126Z,100534.97
2022-08-09T05:37:47.564Z,100534.84
2022-08-09T05:40:15.022Z,100539.16
2022-08-09T05:42:43.347Z,100544.59
2022-08-09T05:45:14.699Z,100544.78
2022-08-09T05:47:51.645Z,100545.94
2022-08-09T05:50:31.884Z,100549.81
2022-08-09T05:53:06.756Z,100550.25
2022-08-09T05:55:53.062Z,100552.16
2022-08-09T05:58:20.069Z,100557.88
2022-08-09T06:00:47.904Z,100568.84
2022-08-09T06:03:19.974Z,100559.84
2022-08-09T06:05:57.868Z,100568.28
2022-08-09T06:08:33.129Z,100571.06
2022-08-09T06:11:00.889Z,100564.63
2022-08-09T06:13:28.603Z,100566.91
2022-08-09T06:16:04.798Z,100572.75
2022-08-09T06:18:32.155Z,100571.16
2022-08-09T06:20:58.978Z,100570.03
2022-08-09T06:23:57.688Z,100577.53
2022-08-09T06:26:20.560Z,100579.72
2022-08-09T06:29:00.769Z,100588.78
2022-08-09T06:31:40.376Z,100585.84
2022-08-09T06:34:19.927Z,100590.34
2022-08-09T06:36:50.324Z,100584.72
2022-08-09T06:39:24.481Z,100592.75
2022-08-09T06:42:11.583Z,100581.00
2022-08-09T06:44:38.561Z,100590.84
2022-08-09T06:47:05.594Z,100586.94
2022-08-09T06:50:12.168Z,100593.94
2022-08-09T06:52:25.082Z,100594.31
2022-08-09T06:54:52.216Z,100591.44
2022-08-09T06:57:42.480Z,100596.41
2022-08-09T07:00:51.495Z,100597.31
2022-08-09T07:02:56.683Z,100600.56
2022-08-09T07:05:24.015Z,100591.88
2022-08-09T07:07:59.682Z,100592.41
2022-08-09T07:10:32.119Z,100587.19
2022-08-09T07:12:59.562Z,100596.53
2022-08-09T07:16:36.272Z,100597.63
2022-08-09T07:18:14.242Z,100597.56
2022-08-09T07:20:43.333Z,100606.63
2022-08-09T07:23:18.620Z,100600.06
2022-08-09T07:25:52.343Z,100602.25
2022-08-09T07:28:29.373Z,100605.75
2022-08-09T07:30:57.616Z,100607.44
2022-08-09T07:33:24.449Z,100604.25
2022-08-09T07:35:54.350Z,100602.03
2022-08-09T07:38:21.472Z,100604.34
2022-08-09T07:41:01.009Z,100606.00
2022-08-09T07:43:41.369Z,100597.53
2022-08-09T07:46:17.252Z,100594.75
2022-08-09T07:48:46.649Z,100602.19
2022-08-09T07:52:05.419Z,100599.03
2022-08-09T07:54:14.289Z,100599.50
2022-08-09T07:56:49.374Z,100600.72
2022-08-09T07:59:34.599Z,100600.47
2022-08-09T08:02:07.499Z,100592.91
2022-08-09T08:04:36.104Z,100601.34
2022-08-09T08:07:15.598Z,100598.03
2022-08-09T08:09:55.187Z,100593.31
2022-08-09T08:12:36.698Z,100596.38
2022-08-09T08:15:04.389Z,100592.94
2022-08-09T08:17:52.001Z,100592.41
2022-08-09T08:20:19.600Z,100596.88
2022-08-09T08:23:01.321Z,100598.53
2022-08-09T08:25:44.751Z,100593.22
2022-08-09T08:28:15.450Z,100590.44
2022-08-09T08:30:43.341Z,100585.88
2022-08-09T08:33:11.803Z,100585.22
2022-08-09T08:35:58.165Z,100582.31
2022-08-09T08:38:25.786Z,100579.53
2022-08-09T08:40:55.999Z,100580.94
2022-08-09T08:43:23.336Z,100586.25
2022-08-09T08:46:00.028Z,100582.66
2022-08-09T08:48:32.204Z,100588.44
2022-08-09T08:50:59.968Z,100588.47
2022-08-09T08:53:32.246Z,100594.09
2022-08-09T08:56:05.128Z,100585.72
2022-08-09T08:58:33.204Z,100582.94
2022-08-09T09:01:03.253Z,100592.69
2022-08-09T09:03:37.665Z,100584.78
2022-08-09T09:06:05.550Z,100584.22
2022-08-09T09:08:38.103Z,100584.41
2022-08-09T09:11:08.416Z,100590.88
2022-08-09T09:13:54.863Z,100584.56
2022-08-09T09:16:29.793Z,100581.69
2022-08-09T09:19:22.815Z,100582.22
2022-08-09T09:22:05.197Z,100577.06
2022-08-09T09:24:34.664Z,100570.25
2022-08-09T09:27:02.757Z,100576.97
2022-08-09T09:29:41.014Z,100570.25
2022-08-09T09:32:34.575Z,100576.44
2022-08-09T09:35:09.186Z,100567.03
2022-08-09T09:37:40.565Z,100559.63
2022-08-09T09:40:08.871Z,100564.38
2022-08-09T09:42:35.890Z,100561.22
2022-08-09T09:45:05.787Z,100568.25
2022-08-09T09:47:37.976Z,100560.13
2022-08-09T09:50:17.201Z,100560.56
2022-08-09T09:52:53.752Z,100562.09
2022-08-09T09:55:28.065Z,100556.94
2022-08-09T09:58:03.151Z,100560.44
2022-08-09T10:00:34.409Z,100560.09
2022-08-09T10:03:11.979Z,100557.63
2022-08-09T10:06:03.226Z,100554.38
2022-08-09T10:08:32.067Z,100560.47
2022-08-09T10:10:59.091Z,100559.06
2022-08-09T10:13:43.281Z,100560.88
2022-08-09T10:16:57.702Z,100555.03
2022-08-09T10:19:01.049Z,100542.97
2022-08-09T10:21:30.376Z,100537.97
2022-08-09T10:23:59.788Z,100534.03
2022-08-09T10:26:30.906Z,100535.97
2022-08-09T10:29:20.973Z,100534.88
2022-08-09T10:32:35.616Z,100532.22
2022-08-09T10:34:35.873Z,100533.72
2022-08-09T10:37:03.150Z,100543.41
2022-08-09T10:39:30.486Z,100538.41
2022-08-09T10:42:08.134Z,100540.31
2022-08-09T10:44:39.869Z,100537.56
2022-08-09T10:48:19.145Z,100545.66
2022-08-09T10:50:31.227Z,100541.47
2022-08-09T10:53:11.587Z,100537.94
2022-08-09T10:55:58.270Z,100541.09
2022-08-09T10:58:33.693Z,100537.69
2022-08-09T11:03:11.663Z,100542.75
2022-08-09T11:04:06.708Z,100536.56
2022-08-09T11:06:48.237Z,100531.22
2022-08-09T11:09:19.203Z,100541.25
2022-08-09T11:11:52.425Z,100526.56
2022-08-09T11:14:32.715Z,100521.25
2022-08-09T11:16:59.807Z,100531.63
2022-08-09T11:20:10.716Z,100514.09
2022-08-09T11:22:41.078Z,100516.34
2022-08-09T11:25:11.298Z,100518.56
2022-08-09T11:28:05.589Z,100515.44
2022-08-09T11:30:32.509Z,100524.78
2022-08-09T11:33:19.440Z,100521.16
2022-08-09T11:35:50.211Z,100530.28
2022-08-09T11:38:22.208Z,100515.84
2022-08-09T11:40:55.779Z,100522.03
2022-08-09T11:43:25.604Z,100527.63
2022-08-09T11:46:02.818Z,100518.84
2022-08-09T11:48:31.677Z,100517.66
2022-08-09T11:52:49.464Z,100524.44
2022-08-09T11:53:58.515Z,100537.34
2022-08-09T11:56:42.652Z,100529.25
2022-08-09T11:59:24.496Z,100517.97
2022-08-09T12:02:16.155Z,100513.09
2022-08-09T12:04:44.942Z,100512.28
2022-08-09T12:07:12.047Z,100517.09
2022-08-09T12:09:41.242Z,100523.88
2022-08-09T12:12:28.792Z,100509.72
2022-08-09T12:15:07.570Z,100506.28
2022-08-09T12:17:44.824Z,100516.75
2022-08-09T12:20:16.510Z,100514.34
2022-08-09T12:22:50.098Z,100510.19
2022-08-09T12:25:36.540Z,100500.19
2022-08-09T12:29:09.808Z,100495.94
2022-08-09T12:31:01.088Z,100491.25
2022-08-09T12:33:51.073Z,100488.84
2022-08-09T12:36:31.226Z,100488.13
2022-08-09T12:38:59.620Z,100478.41
2022-08-09T12:41:36.275Z,100481.31
2022-08-09T12:44:09.671Z,100488.00
2022-08-09T12:46:41.116Z,100481.56
2022-08-09T12:49:08.096Z,100469.69
2022-08-09T12:52:00.439Z,100477.09
2022-08-09T12:54:21.827Z,100471.34
2022-08-09T12:56:54.258Z,100472.56
2022-08-09T12:59:22.628Z,100475.47
2022-08-09T13:01:58.968Z,100460.56
2022-08-09T13:04:37.794Z,100460.66
2022-08-09T13:07:15.340Z,100466.97
2022-08-09T13:09:52.666Z,100463.59
2022-08-09T13:12:23.001Z,100470.66
2022-08-09T13:14:54.066Z,100477.25
2022-08-09T13:17:44.150Z,100471.78
2022-08-09T13:20:18.730Z,100462.31
2022-08-09T13:23:05.249Z,100469.22
2022-08-09T13:25:42.625Z,100459.69
2022-08-09T13:28:24.822Z,100473.47
2022-08-09T13:32:14.373Z,100461.44
2022-08-09T13:33:56.001Z,100454.00
2022-08-09T13:36:38.769Z,100456.97
2022-08-09T13:41:50.893Z,100457.25
2022-08-09T13:42:03.079Z,100447.56
2022-08-09T13:44:31.076Z,100444.28
2022-08-09T13:47:27.325Z,100436.94
2022-08-09T13:49:57.865Z,100447.00
2022-08-09T13:52:28.911Z,100443.59
2022-08-09T13:54:59.345Z,100440.41
2022-08-09T13:57:36.423Z,100438.09
2022-08-09T14:00:28.756Z,100429.16
2022-08-09T14:03:04.112Z,100433.44
2022-08-09T14:06:00.034Z,100434.66
2022-08-09T14:08:29.808Z,100431.13
2022-08-09T14:10:57.198Z,100428.81
2022-08-09T14:14:15.011Z,100438.88
2022-08-09T14:16:16.259Z,100440.38
2022-08-09T14:18:45.954Z,100436.06
2022-08-09T14:21:16.784Z,100433.53
2022-08-09T14:23:55.480Z,100438.28
2022-08-09T14:26:32.238Z,100432.03
2022-08-09T14:30:03.917Z,100423.03
2022-08-09T14:31:57.728Z,100423.16
2022-08-09T14:34:32.261Z,100420.66
2022-08-09T14:37:01.291Z,100423.53
2022-08-09T14:39:45.883Z,100419.94
2022-08-09T14:42:28.950Z,100412.72
2022-08-09T14:45:01.128Z,100420.25
2022-08-09T14:47:46.281Z,100418.06
2022-08-09T14:50:16.107Z,100423.63
2022-08-09T14:52:43.241Z,100422.50
2022-08-09T14:55:14.793Z,100410.91
2022-08-09T14:57:47.562Z,100418.59
2022-08-09T15:00:16.240Z,100410.63
2022-08-09T15:02:47.431Z,100414.84
2022-08-09T15:05:18.523Z,100421.44
2022-08-09T15:07:55.925Z,100421.78
2022-08-09T15:10:25.081Z,100424.34
2022-08-09T15:12:52.899Z,100409.78
2022-08-09T15:15:20.256Z,100415.00
2022-08-09T15:17:51.721Z,100405.41
2022-08-09T15:21:55.922Z,100400.00
2022-08-09T15:24:01.407Z,100412.06
2022-08-09T15:25:55.605Z,100411.31
2022-08-09T15:28:27.506Z,100412.44
2022-08-09T15:31:08.692Z,100406.66
2022-08-09T15:34:15.254Z,100407.16
2022-08-09T15:36:29.200Z,100404.03
2022-08-09T15:39:00.065Z,100411.34
2022-08-09T15:41:31.316Z,100405.03
2022-08-09T15:44:02.388Z,100403.38
2022-08-09T15:46:34.505Z,100396.06
2022-08-09T15:49:20.623Z,100391.06
2022-08-09T15:52:04.086Z,100396.41
2022-08-09T15:54:46.255Z,100388.13
2022-08-09T15:57:35.322Z,100398.59
2022-08-09T16:00:13.794Z,100396.50
2022-08-09T16:02:41.827Z,100394.31
2022-08-09T16:05:09.127Z,100387.34
2022-08-09T16:07:38.831Z,100386.56
2022-08-09T16:10:07.285Z,100383.22
2022-08-09T16:12:50.003Z,100376.84
2022-08-09T16:16:04.786Z,100384.63
2022-08-09T16:18:04.651Z,100393.69
2022-08-09T16:20:31.513Z,100380.09
2022-08-09T16:22:58.360Z,100390.47
2022-08-09T16:25:30.633Z,100377.13
2022-08-09T16:28:07.456Z,100383.44
2022-08-09T16:30:40.913Z,100377.16
2022-08-09T16:33:12.058Z,100377.44
2022-08-09T16:35:57.050Z,100379.41
2022-08-09T16:38:26.698Z,100369.50
2022-08-09T16:40:53.594Z,100374.59
2022-08-09T16:43:22.495Z,100367.50
2022-08-09T16:45:53.751Z,100385.84
2022-08-09T16:48:38.093Z,100370.59
2022-08-09T16:51:13.637Z,100377.88
2022-08-09T16:56:33.630Z,100373.59
2022-08-09T16:59:01.796Z,100379.25
2022-08-09T17:01:35.461Z,100370.84
2022-08-09T17:04:02.866Z,100379.31
2022-08-09T17:06:33.461Z,100377.13
2022-08-09T17:09:16.161Z,100375.41
2022-08-09T17:11:48.199Z,100372.31
2022-08-09T17:14:28.004Z,100379.66
2022-08-09T17:16:56.199Z,100385.59
2022-08-09T17:19:26.469Z,100371.28
2022-08-09T17:21:54.540Z,100377.78
2022-08-09T17:24:27.071Z,100387.56
2022-08-09T17:26:57.130Z,100379.47
2022-08-09T17:29:31.818Z,100372.72
2022-08-09T17:32:05.193Z,100376.38
2022-08-09T17:35:00.850Z,100381.47
2022-08-09T17:37:21.183Z,100391.00
2022-08-09T17:39:53.520Z,100377.56
2022-08-09T17:42:51.363Z,100388.78
2022-08-09T17:45:23.620Z,100382.84
2022-08-09T17:47:55.583Z,100382.03
2022-08-09T17:50:36.094Z,100386.53
2022-08-09T17:53:04.814Z,100392.41
2022-08-09T17:55:48.826Z,100398.84
2022-08-09T17:58:17.405Z,100397.16
2022-08-09T18:00:48.075Z,100395.47
2022-08-09T18:03:18.587Z,100404.16
2022-08-09T18:05:45.656Z,100410.31
2022-08-09T18:08:22.171Z,100415.59
2022-08-09T18:11:00.639Z,100403.50
2022-08-09T18:13:43.683Z,100402.09
2022-08-09T18:16:30.239Z,100404.91
2022-08-09T18:18:59.458Z,100411.34
2022-08-09T18:21:31.589Z,100417.44
2022-08-09T18:24:09.854Z,100411.25
2022-08-09T18:26:46.307Z,100415.72
2022-08-09T18:30:37.731Z,100424.66
2022-08-09T18:32:02.852Z,100419.84
2022-08-09T18:34:30.296Z,100424.00
2022-08-09T18:36:57.131Z,100420.84
2022-08-09T18:39:24.002Z,100424.13
2022-08-09T18:41:53.141Z,100421.31
2022-08-09T18:44:25.466Z,100419.81
2022-08-09T18:47:07.725Z,100424.00
2022-08-09T18:49:41.486Z,100422.81
2022-08-09T18:52:12.106Z,100426.97
2022-08-09T18:54:39.411Z,100430.53
2022-08-09T18:57:16.697Z,100431.25
2022-08-09T18:59:51.349Z,100433.97
2022-08-09T19:02:23.933Z,100435.56
2022-08-09T19:05:14.904Z,100435.97
2022-08-09T19:08:04.636Z,100439.56
2022-08-09T19:10:37.619Z,100445.56
2022-08-09T19:13:20.050Z,100437.13
2022-08-09T19:15:49.942Z,100452.44
2022-08-09T19:18:33.524Z,100450.72
2022-08-09T19:21:05.569Z,100455.28
2022-08-09T19:24:36.427Z,100458.84
2022-08-09T19:26:31.677Z,100461.28
2022-08-09T19:29:01.651Z,100460.03
2022-08-09T19:31:30.501Z,100463.53
2022-08-09T19:34:18.304Z,100463.91
2022-08-09T19:36:49.433Z,100464.34
2022-08-09T19:39:16.409Z,100464.00
2022-08-09T19:41:43.347Z,100461.53
2022-08-09T19:44:12.624Z,100465.28
2022-08-09T19:46:50.998Z,100468.16
2022-08-09T19:50:09.277Z,100477.47
2022-08-09T19:52:08.199Z,100469.97
2022-08-09T19:54:35.120Z,100472.53
2022-08-09T19:57:02.931Z,100480.81
2022-08-09T19:59:59.638Z,100487.06
2022-08-09T20:04:12.725Z,100482.47
2022-08-09T20:05:11.552Z,100488.03
2022-08-09T20:07:59.644Z,100490.69
2022-08-09T20:10:34.632Z,100495.06
2022-08-09T20:13:03.958Z,100495.69
2022-08-09T20:16:37.382Z,100502.25
2022-08-09T20:18:17.832Z,100503.00
2022-08-09T20:20:46.801Z,100506.66
2022-08-09T20:23:13.694Z,100504.28
2022-08-09T20:25:52.107Z,100501.03
2022-08-09T20:28:27.809Z,100505.28
2022-08-09T20:31:02.900Z,100508.31
2022-08-09T20:33:39.295Z,100504.84
2022-08-09T20:36:11.047Z,100502.91
2022-08-09T20:39:06.677Z,100504.34
2022-08-09T20:41:32.087Z,100509.19
2022-08-09T20:44:03.662Z,100506.31
2022-08-09T20:46:33.940Z,100506.66
2022-08-09T20:49:10.343Z,100509.06
2022-08-09T20:51:41.413Z,100508.13
2022-08-09T20:54:16.696Z,100503.75
2022-08-09T20:56:46.987Z,100506.75
2022-08-09T20:59:17.214Z,100498.72
2022-08-09T21:01:50.838Z,100509.53
2022-08-09T21:05:54.279Z,100506.59
2022-08-09T21:07:12.024Z,100512.47
2022-08-09T21:09:55.384Z,100512.16
2022-08-09T21:15:12.885Z,100519.19
2022-08-09T21:18:22.982Z,100516.72
2022-08-09T21:20:29.842Z,100517.25
2022-08-09T21:22:57.571Z,100526.09
2022-08-09T21:25:25.385Z,100514.22
2022-08-09T21:27:53.261Z,100516.22
2022-08-09T21:30:22.485Z,100516.09
2022-08-09T21:32:50.082Z,100513.19
2022-08-09T21:35:17.409Z,100514.38
2022-08-09T21:37:56.891Z,100517.81
2022-08-09T21:40:31.001Z,100520.84
2022-08-09T21:43:00.120Z,100521.13
2022-08-09T21:45:28.701Z,100517.38
2022-08-09T21:47:57.918Z,100517.91
2022-08-09T21:50:36.049Z,100519.41
2022-08-09T21:53:06.510Z,100524.13
2022-08-09T21:55:46.481Z,100532.91
2022-08-09T21:58:14.160Z,100526.16
2022-08-09T22:00:41.075Z,100522.78
2022-08-09T22:03:19.804Z,100521.09
2022-08-09T22:05:53.369Z,100530.28
2022-08-09T22:08:24.686Z,100520.72
2022-08-09T22:11:50.196Z,100526.50
2022-08-09T22:13:42.261Z,100525.44
2022-08-09T22:16:10.894Z,100526.72
2022-08-09T22:18:38.319Z,100532.28
2022-08-09T22:21:09.945Z,100528.47
2022-08-09T22:24:01.153Z,100528.31
2022-08-09T22:26:35.589Z,100532.16
2022-08-09T22:29:09.534Z,100538.31
2022-08-09T22:31:37.589Z,100538.13
2022-08-09T22:34:14.394Z,100542.81
2022-08-09T22:36:46.330Z,100543.69
2022-08-09T22:39:47.091Z,100549.63
2022-08-09T22:42:01.234Z,100546.66
2022-08-09T22:44:29.850Z,100549.63
2022-08-09T22:48:12.965Z,100548.16
2022-08-09T22:49:47.197Z,100547.91
2022-08-09T22:52:15.717Z,100553.25
2022-08-09T22:54:42.618Z,100538.56
2022-08-09T22:57:13.973Z,100541.53
2022-08-09T22:59:58.442Z,100536.84
2022-08-09T23:02:27.446Z,100540.69
2022-08-09T23:04:54.809Z,100540.88
2022-08-09T23:08:20.995Z,100542.81
2022-08-09T23:10:13.236Z,100535.56
2022-08-09T23:12:40.107Z,100538.13
2022-08-09T23:15:07.123Z,100543.44
2022-08-09T23:17:34.262Z,100540.00
2022-08-09T23:20:07.442Z,100542.56
2022-08-09T23:22:35.893Z,100539.59
2022-08-09T23:25:04.047Z,100536.59
2022-08-09T23:27:30.910Z,100537.88
2022-08-09T23:29:57.720Z,100537.03
2022-08-09T23:32:24.569Z,100544.44
2022-08-09T23:34:51.513Z,100539.97
2022-08-09T23:37:31.468Z,100538.06
2022-08-09T23:39:58.370Z,100537.81
2022-08-09T23:42:26.501Z,100539.28
2022-08-09T23:44:53.398Z,100543.50
2022-08-09T23:47:20.249Z,100536.72
2022-08-09T23:49:47.118Z,100537.97
2022-08-09T23:52:13.941Z,100539.00
2022-08-09T23:54:45.408Z,100537.06
2022-08-09T23:57:12.637Z,100532.75
2022-08-09T23:59:42.005Z,100531.69
